createdAt,value
2018-12-14T00:00:00.417Z,30.23
2018-12-14T00:02:33.350Z,29.52
2018-12-14T00:05:07.002Z,27.07
2018-12-14T00:07:39.911Z,33.63
2018-12-14T00:10:11.663Z,25.20
2018-12-14T00:12:42.597Z,30.17
2018-12-14T00:15:13.970Z,27.25
2018-12-14T00:17:44.854Z,25.62
2018-12-14T00:20:15.731Z,25.57
2018-12-14T00:22:46.585Z,26.37
2018-12-14T00:25:17.475Z,25.88
2018-12-14T00:27:48.660Z,24.85
2018-12-14T00:30:19.561Z,25.57
2018-12-14T00:32:50.538Z,22.93
2018-12-14T00:35:22.097Z,29.25
2018-12-14T00:37:53.033Z,29.98
2018-12-14T00:40:23.883Z,24.07
2018-12-14T00:42:54.796Z,25.88
2018-12-14T00:45:25.737Z,27.42
2018-12-14T00:47:57.341Z,24.90
2018-12-14T00:50:28.365Z,24.25
2018-12-14T00:52:59.242Z,23.57
2018-12-14T00:55:31.945Z,25.35
2018-12-14T00:58:03.410Z,23.38
2018-12-14T01:00:37.822Z,23.60
2018-12-14T01:03:08.726Z,26.12
2018-12-14T01:05:39.989Z,26.30
2018-12-14T01:08:10.897Z,27.73
2018-12-14T01:10:41.953Z,23.35
2018-12-14T01:13:12.880Z,25.55
2018-12-14T01:15:44.044Z,24.25
2018-12-14T01:18:14.965Z,23.75
2018-12-14T01:20:45.910Z,26.57
2018-12-14T01:23:16.853Z,24.77
2018-12-14T01:25:47.779Z,28.38
2018-12-14T01:28:18.713Z,24.80
2018-12-14T01:30:49.649Z,24.63
2018-12-14T01:33:20.576Z,28.42
2018-12-14T01:35:51.525Z,25.97
2018-12-14T01:38:22.457Z,30.23
2018-12-14T01:40:53.526Z,27.87
2018-12-14T01:43:24.369Z,26.05
2018-12-14T01:45:55.242Z,25.17
2018-12-14T01:48:26.122Z,25.82
2018-12-14T01:50:57.090Z,25.20
2018-12-14T01:53:27.946Z,27.40
2018-12-14T01:55:58.843Z,27.60
2018-12-14T01:58:29.684Z,27.10
2018-12-14T02:01:01.071Z,24.87
2018-12-14T02:03:31.937Z,26.82
2018-12-14T02:06:02.890Z,26.20
2018-12-14T02:08:34.252Z,24.98
2018-12-14T02:11:05.658Z,26.93
2018-12-14T02:13:36.843Z,24.30
2018-12-14T02:16:07.975Z,20.37
2018-12-14T02:18:38.830Z,25.72
2018-12-14T02:21:09.842Z,28.45
2018-12-14T02:23:40.690Z,24.45
2018-12-14T02:26:11.663Z,24.50
2018-12-14T02:28:42.582Z,28.07
2018-12-14T02:31:13.510Z,32.13
2018-12-14T02:33:44.426Z,28.47
2018-12-14T02:36:15.695Z,26.65
2018-12-14T02:38:46.605Z,28.40
2018-12-14T02:41:17.551Z,27.87
2018-12-14T02:43:49.967Z,25.30
2018-12-14T02:46:20.841Z,28.23
2018-12-14T02:48:51.702Z,27.58
2018-12-14T02:51:23.136Z,24.52
2018-12-14T02:53:54.070Z,26.10
2018-12-14T02:56:25.343Z,30.20
2018-12-14T02:58:56.174Z,30.65
2018-12-14T03:01:27.613Z,24.90
2018-12-14T03:03:58.499Z,25.72
2018-12-14T03:06:29.712Z,25.45
2018-12-14T03:09:01.035Z,26.82
2018-12-14T03:11:33.630Z,26.75
2018-12-14T03:14:05.587Z,23.07
2018-12-14T03:16:36.436Z,23.50
2018-12-14T03:19:07.511Z,26.07
2018-12-14T03:21:39.541Z,23.75
2018-12-14T03:24:10.357Z,26.55
2018-12-14T03:26:41.218Z,23.10
2018-12-14T03:29:12.062Z,29.02
2018-12-14T03:31:42.970Z,28.90
2018-12-14T03:34:13.810Z,27.58
2018-12-14T03:36:44.906Z,24.55
2018-12-14T03:39:16.003Z,25.80
2018-12-14T03:41:47.495Z,28.98
2018-12-14T03:44:18.399Z,27.22
2018-12-14T03:46:49.614Z,26.50
2018-12-14T03:49:20.584Z,25.92
2018-12-14T03:51:51.488Z,26.25
2018-12-14T03:54:22.358Z,25.57
2018-12-14T03:56:53.274Z,25.70
2018-12-14T03:59:24.534Z,25.75
2018-12-14T04:01:55.571Z,23.80
2018-12-14T04:04:26.497Z,28.25
2018-12-14T04:06:57.426Z,23.92
2018-12-14T04:09:28.698Z,23.75
2018-12-14T04:11:59.574Z,23.40
2018-12-14T04:14:30.571Z,23.35
2018-12-14T04:17:01.908Z,24.45
2018-12-14T04:19:32.955Z,24.00
2018-12-14T04:22:03.862Z,22.02
2018-12-14T04:24:34.715Z,25.17
2018-12-14T04:27:05.645Z,21.65
2018-12-14T04:29:37.420Z,21.95
2018-12-14T04:32:08.329Z,26.77
2018-12-14T04:34:39.187Z,22.58
2018-12-14T04:37:10.108Z,27.15
2018-12-14T04:39:40.980Z,23.87
2018-12-14T04:42:11.883Z,19.27
2018-12-14T04:44:42.639Z,23.47
2018-12-14T04:47:13.610Z,22.05
2018-12-14T04:49:45.459Z,20.97
2018-12-14T04:52:16.382Z,25.00
2018-12-14T04:54:47.628Z,24.25
2018-12-14T04:57:18.536Z,22.07
2018-12-14T04:59:49.916Z,22.40
2018-12-14T05:02:20.818Z,24.23
2018-12-14T05:04:52.164Z,23.52
2018-12-14T05:07:23.105Z,28.32
2018-12-14T05:09:54.054Z,26.00
2018-12-14T05:12:24.990Z,23.70
2018-12-14T05:14:56.275Z,21.05
2018-12-14T05:17:27.815Z,22.95
2018-12-14T05:19:58.846Z,20.50
2018-12-14T05:22:29.857Z,24.27
2018-12-14T05:25:01.138Z,24.87
2018-12-14T05:27:32.630Z,24.32
2018-12-14T05:30:06.015Z,24.55
2018-12-14T05:32:36.893Z,21.27
2018-12-14T05:35:08.293Z,21.62
2018-12-14T05:37:39.181Z,23.38
2018-12-14T05:40:10.457Z,23.07
2018-12-14T05:42:41.701Z,22.75
2018-12-14T05:45:12.551Z,24.47
2018-12-14T05:47:43.724Z,23.20
2018-12-14T05:50:14.557Z,24.18
2018-12-14T05:52:45.405Z,26.60
2018-12-14T05:55:16.357Z,22.55
2018-12-14T05:57:47.242Z,31.52
2018-12-14T06:00:18.797Z,23.83
2018-12-14T06:02:51.321Z,26.35
2018-12-14T06:05:26.889Z,25.50
2018-12-14T06:07:59.818Z,23.92
2018-12-14T06:10:30.807Z,22.73
2018-12-14T06:13:02.194Z,28.20
2018-12-14T06:15:33.463Z,24.00
2018-12-14T06:18:08.625Z,22.30
2018-12-14T06:20:40.038Z,21.50
2018-12-14T06:23:10.919Z,21.52
2018-12-14T06:25:42.674Z,24.23
2018-12-14T06:28:13.716Z,23.15
2018-12-14T06:30:44.589Z,24.23
2018-12-14T06:33:15.514Z,22.22
2018-12-14T06:35:46.417Z,22.70
2018-12-14T06:38:17.406Z,21.85
2018-12-14T06:40:48.398Z,21.77
2018-12-14T06:43:19.309Z,20.48
2018-12-14T06:45:50.226Z,23.10
2018-12-14T06:48:21.094Z,21.00
2018-12-14T06:50:52.297Z,23.42
2018-12-14T06:53:23.185Z,24.65
2018-12-14T06:55:54.149Z,21.85
2018-12-14T06:58:25.570Z,23.18
2018-12-14T07:00:56.431Z,27.98
2018-12-14T07:03:28.228Z,26.45
2018-12-14T07:05:59.067Z,25.97
2018-12-14T07:08:31.301Z,22.62
2018-12-14T07:11:02.538Z,21.40
2018-12-14T07:13:39.998Z,23.40
2018-12-14T07:16:10.948Z,23.40
2018-12-14T07:18:41.817Z,24.12
2018-12-14T07:21:12.734Z,22.35
2018-12-14T07:23:43.680Z,21.93
2018-12-14T07:26:14.581Z,21.45
2018-12-14T07:28:45.701Z,23.52
2018-12-14T07:31:16.674Z,24.12
2018-12-14T07:33:47.734Z,24.40
2018-12-14T07:36:19.028Z,20.15
2018-12-14T07:38:49.940Z,22.15
2018-12-14T07:41:20.824Z,21.75
2018-12-14T07:43:51.997Z,21.73
2018-12-14T07:46:23.317Z,20.72
2018-12-14T07:48:54.415Z,22.98
2018-12-14T07:51:25.314Z,24.23
2018-12-14T07:53:56.277Z,19.65
2018-12-14T07:56:27.660Z,22.42
2018-12-14T07:58:59.374Z,21.55
2018-12-14T08:01:30.243Z,18.90
2018-12-14T08:04:01.150Z,22.98
2018-12-14T08:06:32.009Z,25.77
2018-12-14T08:09:03.249Z,23.90
2018-12-14T08:11:36.044Z,21.35
2018-12-14T08:14:06.894Z,20.70
2018-12-14T08:16:38.014Z,20.27
2018-12-14T08:19:08.964Z,22.42
2018-12-14T08:21:39.842Z,23.02
2018-12-14T08:24:10.774Z,20.57
2018-12-14T08:26:41.725Z,19.15
2018-12-14T08:29:12.664Z,21.87
2018-12-14T08:31:43.876Z,22.70
2018-12-14T08:34:14.746Z,28.30
2018-12-14T08:36:45.870Z,25.55
2018-12-14T08:39:16.817Z,35.40
2018-12-14T08:41:48.153Z,29.52
2018-12-14T08:44:19.003Z,26.68
2018-12-14T08:46:49.954Z,24.75
2018-12-14T08:49:20.879Z,21.17
2018-12-14T08:51:51.826Z,22.82
2018-12-14T08:54:23.144Z,20.40
2018-12-14T08:56:54.089Z,22.13
2018-12-14T08:59:25.029Z,21.17
2018-12-14T09:01:56.510Z,17.80
2018-12-14T09:04:27.413Z,18.35
2018-12-14T09:06:58.267Z,17.62
2018-12-14T09:09:29.129Z,16.90
2018-12-14T09:12:00.472Z,18.10
2018-12-14T09:14:31.330Z,19.92
2018-12-14T09:17:02.189Z,19.27
2018-12-14T09:19:33.056Z,17.25
2018-12-14T09:22:04.401Z,20.10
2018-12-14T09:24:35.353Z,22.37
2018-12-14T09:27:06.366Z,18.80
2018-12-14T09:29:37.221Z,18.67
2018-12-14T09:32:08.141Z,20.30
2018-12-14T09:34:39.751Z,17.02
2018-12-14T09:37:10.606Z,18.87
2018-12-14T09:39:42.305Z,22.02
2018-12-14T09:42:13.245Z,19.27
2018-12-14T09:44:44.085Z,21.30
2018-12-14T09:47:15.129Z,23.62
2018-12-14T09:49:47.153Z,22.60
2018-12-14T09:52:18.021Z,18.00
2018-12-14T09:54:48.949Z,18.20
2018-12-14T09:57:19.890Z,19.40
2018-12-14T09:59:50.821Z,18.98
2018-12-14T10:02:21.780Z,18.85
2018-12-14T10:04:52.695Z,17.85
2018-12-14T10:07:24.077Z,20.92
2018-12-14T10:09:54.914Z,17.52
2018-12-14T10:12:25.839Z,18.35
2018-12-14T10:14:56.761Z,18.10
2018-12-14T10:17:28.849Z,17.60
2018-12-14T10:19:59.702Z,17.45
2018-12-14T10:22:32.490Z,17.55
2018-12-14T10:25:03.386Z,17.57
2018-12-14T10:27:34.309Z,19.62
2018-12-14T10:30:06.802Z,17.73
2018-12-14T10:32:37.734Z,19.67
2018-12-14T10:35:11.035Z,17.00
2018-12-14T10:37:42.065Z,16.37
2018-12-14T10:40:13.927Z,18.15
2018-12-14T10:42:44.946Z,25.60
2018-12-14T10:45:15.904Z,20.52
2018-12-14T10:47:46.813Z,19.05
2018-12-14T10:50:17.994Z,23.05
2018-12-14T10:52:48.846Z,19.92
2018-12-14T10:55:19.781Z,18.77
2018-12-14T10:57:51.313Z,22.37
2018-12-14T11:00:27.294Z,21.05
2018-12-14T11:02:58.188Z,20.55
2018-12-14T11:05:29.546Z,17.40
2018-12-14T11:08:00.433Z,18.37
2018-12-14T11:10:31.300Z,16.32
2018-12-14T11:13:02.172Z,18.77
2018-12-14T11:15:33.094Z,18.87
2018-12-14T11:18:04.048Z,18.07
2018-12-14T11:20:34.968Z,21.12
2018-12-14T11:23:05.834Z,16.25
2018-12-14T11:25:37.415Z,17.73
2018-12-14T11:28:08.322Z,18.92
2018-12-14T11:30:39.165Z,20.95
2018-12-14T11:33:10.039Z,17.70
2018-12-14T11:35:40.869Z,16.52
2018-12-14T11:38:11.755Z,18.35
2018-12-14T11:40:42.677Z,18.90
2018-12-14T11:43:13.619Z,18.17
2018-12-14T11:45:44.546Z,19.48
2018-12-14T11:48:15.506Z,20.77
2018-12-14T11:50:46.461Z,17.73
2018-12-14T11:53:20.268Z,17.98
2018-12-14T11:55:51.693Z,16.17
2018-12-14T11:58:22.637Z,20.05
2018-12-14T12:00:53.555Z,18.75
2018-12-14T12:03:24.473Z,24.35
2018-12-14T12:05:56.057Z,14.47
2018-12-14T12:08:26.923Z,20.52
2018-12-14T12:10:57.834Z,23.65
2018-12-14T12:13:28.864Z,26.42
2018-12-14T12:15:59.830Z,28.42
2018-12-14T12:18:30.718Z,53.13
2018-12-14T12:21:02.117Z,59.67
2018-12-14T12:23:33.446Z,52.27
2018-12-14T12:26:04.991Z,60.98
2018-12-14T12:28:36.829Z,35.55
2018-12-14T12:31:07.980Z,55.08
2018-12-14T12:33:38.842Z,42.35
2018-12-14T12:36:09.759Z,43.20
2018-12-14T12:38:40.595Z,83.97
2018-12-14T12:41:11.536Z,29.10
2018-12-14T12:43:42.519Z,22.17
2018-12-14T12:46:13.610Z,22.50
2018-12-14T12:48:45.118Z,23.05
2018-12-14T12:51:16.739Z,21.77
2018-12-14T12:53:47.611Z,18.10
2018-12-14T12:56:19.130Z,23.02
2018-12-14T12:58:50.082Z,20.62
2018-12-14T13:01:20.981Z,22.32
2018-12-14T13:03:52.912Z,25.52
2018-12-14T13:06:23.739Z,21.25
2018-12-14T13:08:55.238Z,24.07
2018-12-14T13:11:26.178Z,21.57
2018-12-14T13:13:57.145Z,26.40
2018-12-14T13:16:28.055Z,19.48
2018-12-14T13:18:58.975Z,19.05
2018-12-14T13:21:29.854Z,22.55
2018-12-14T13:24:00.759Z,25.30
2018-12-14T13:26:31.627Z,21.00
2018-12-14T13:29:02.867Z,21.17
2018-12-14T13:31:33.730Z,24.87
2018-12-14T13:34:06.889Z,27.37
2018-12-14T13:36:38.019Z,21.45
2018-12-14T13:39:09.078Z,21.82
2018-12-14T13:41:40.361Z,24.32
2018-12-14T13:44:11.256Z,23.52
2018-12-14T13:46:42.186Z,20.25
2018-12-14T13:49:13.436Z,21.33
2018-12-14T13:51:44.541Z,18.52
2018-12-14T13:54:15.376Z,20.52
2018-12-14T13:56:46.358Z,25.17
2018-12-14T13:59:17.193Z,22.37
2018-12-14T14:01:48.317Z,22.60
2018-12-14T14:04:19.216Z,23.62
2018-12-14T14:06:50.116Z,22.60
2018-12-14T14:09:21.647Z,21.35
2018-12-14T14:11:52.829Z,19.67
2018-12-14T14:14:24.753Z,39.88
2018-12-14T14:16:56.316Z,19.00
2018-12-14T14:19:27.574Z,18.02
2018-12-14T14:21:58.462Z,17.73
2018-12-14T14:24:30.659Z,18.95
2018-12-14T14:27:01.514Z,19.05
2018-12-14T14:29:32.441Z,20.57
2018-12-14T14:32:03.277Z,20.75
2018-12-14T14:34:34.198Z,16.35
2018-12-14T14:37:05.517Z,20.27
2018-12-14T14:39:36.543Z,21.60
2018-12-14T14:42:08.790Z,20.08
2018-12-14T14:44:39.706Z,20.48
2018-12-14T14:47:10.609Z,19.02
2018-12-14T14:49:41.990Z,22.62
2018-12-14T14:52:12.904Z,21.15
2018-12-14T14:54:43.855Z,18.20
2018-12-14T14:57:14.719Z,21.02
2018-12-14T14:59:45.741Z,20.40
2018-12-14T15:02:16.605Z,21.65
2018-12-14T15:04:47.502Z,20.70
2018-12-14T15:07:18.412Z,21.87
2018-12-14T15:09:49.369Z,20.25
2018-12-14T15:12:20.302Z,28.07
2018-12-14T15:14:51.348Z,24.87
2018-12-14T15:17:22.290Z,25.50
2018-12-14T15:19:53.232Z,28.60
2018-12-14T15:22:24.147Z,19.60
2018-12-14T15:24:55.729Z,20.12
2018-12-14T15:27:26.680Z,19.12
2018-12-14T15:29:57.589Z,17.57
2018-12-14T15:32:29.377Z,21.20
2018-12-14T15:35:00.374Z,19.85
2018-12-14T15:37:31.646Z,18.32
2018-12-14T15:40:02.566Z,19.65
2018-12-14T15:42:33.530Z,17.50
2018-12-14T15:45:05.480Z,18.92
2018-12-14T15:47:36.414Z,21.68
2018-12-14T15:50:08.489Z,20.95
2018-12-14T15:52:39.817Z,18.50
2018-12-14T15:55:11.088Z,18.20
2018-12-14T15:57:43.063Z,19.10
2018-12-14T16:00:14.760Z,19.27
2018-12-14T16:02:45.847Z,25.55
2018-12-14T16:05:16.814Z,19.40
2018-12-14T16:07:48.347Z,19.37
2018-12-14T16:10:19.229Z,16.90
2018-12-14T16:12:51.124Z,18.12
2018-12-14T16:15:22.047Z,22.48
2018-12-14T16:17:54.061Z,17.05
2018-12-14T16:20:25.171Z,18.95
2018-12-14T16:22:56.166Z,18.27
2018-12-14T16:25:27.020Z,17.32
2018-12-14T16:27:58.242Z,17.48
2018-12-14T16:30:29.080Z,17.87
2018-12-14T16:33:00.063Z,16.23
2018-12-14T16:35:37.793Z,19.48
2018-12-14T16:38:08.681Z,15.80
2018-12-14T16:40:40.071Z,17.75
2018-12-14T16:43:12.090Z,15.72
2018-12-14T16:45:43.086Z,18.80
2018-12-14T16:48:15.078Z,16.75
2018-12-14T16:50:47.958Z,17.05
2018-12-14T16:53:21.340Z,16.55
2018-12-14T16:55:54.758Z,17.35
2018-12-14T16:58:25.744Z,21.10
2018-12-14T17:00:57.227Z,15.65
2018-12-14T17:03:30.493Z,15.53
2018-12-14T17:06:09.942Z,19.17
2018-12-14T17:08:41.885Z,18.62
2018-12-14T17:11:17.273Z,18.85
2018-12-14T17:13:49.223Z,18.65
2018-12-14T17:16:22.417Z,16.55
2018-12-14T17:18:56.405Z,17.35
2018-12-14T17:21:28.729Z,15.68
2018-12-14T17:24:01.002Z,17.32
2018-12-14T17:26:32.582Z,15.93
2018-12-14T17:29:05.762Z,19.40
2018-12-14T17:31:36.652Z,18.02
2018-12-14T17:34:08.039Z,16.23
2018-12-14T17:36:40.351Z,15.93
2018-12-14T17:39:14.750Z,17.85
2018-12-14T17:41:54.247Z,18.32
2018-12-14T17:44:28.415Z,21.15
2018-12-14T17:46:59.430Z,17.32
2018-12-14T17:49:32.056Z,15.25
2018-12-14T17:52:03.251Z,15.43
2018-12-14T17:54:36.637Z,16.55
2018-12-14T17:57:09.234Z,15.25
2018-12-14T17:59:42.216Z,16.57
2018-12-14T18:02:16.422Z,16.62
2018-12-14T18:04:50.064Z,16.70
2018-12-14T18:07:21.255Z,18.40
2018-12-14T18:09:53.029Z,15.38
2018-12-14T18:12:27.170Z,16.80
2018-12-14T18:15:02.511Z,15.48
2018-12-14T18:17:36.775Z,17.55
2018-12-14T18:20:09.432Z,17.70
2018-12-14T18:22:43.187Z,17.17
2018-12-14T18:25:16.321Z,16.65
2018-12-14T18:27:48.461Z,18.07
2018-12-14T18:30:19.367Z,18.48
2018-12-14T18:32:56.158Z,17.50
2018-12-14T18:35:28.653Z,16.05
2018-12-14T18:38:00.612Z,19.73
2018-12-14T18:40:35.067Z,18.90
2018-12-14T18:43:08.775Z,21.62
2018-12-14T18:45:40.752Z,20.12
2018-12-14T18:48:16.586Z,17.20
2018-12-14T18:50:47.513Z,15.48
2018-12-14T18:53:20.847Z,18.73
2018-12-14T18:55:56.387Z,18.45
2018-12-14T18:58:28.886Z,16.90
2018-12-14T19:01:00.806Z,19.10
2018-12-14T19:03:32.504Z,15.78
2018-12-14T19:06:05.209Z,19.87
2018-12-14T19:08:38.392Z,17.00
2018-12-14T19:11:09.713Z,20.68
2018-12-14T19:13:40.958Z,18.32
2018-12-14T19:16:11.857Z,19.62
2018-12-14T19:21:30.914Z,18.10
2018-12-14T19:24:04.581Z,19.73
2018-12-14T19:26:36.335Z,19.15
2018-12-14T19:29:07.367Z,17.12
2018-12-14T19:31:38.513Z,19.73
2018-12-14T19:34:10.711Z,17.48
2018-12-14T19:36:45.915Z,22.70
2018-12-14T19:39:17.314Z,20.43
2018-12-14T19:41:49.695Z,17.12
2018-12-14T19:44:20.821Z,16.30
2018-12-14T19:46:53.980Z,18.55
2018-12-14T19:49:25.110Z,18.17
2018-12-14T19:51:57.625Z,17.98
2018-12-14T19:54:29.189Z,17.67
2018-12-14T19:57:01.781Z,18.73
2018-12-14T19:59:33.273Z,19.10
2018-12-14T20:02:06.195Z,18.10
2018-12-14T20:04:38.717Z,20.40
2018-12-14T20:07:09.802Z,15.58
2018-12-14T20:09:40.850Z,19.95
2018-12-14T20:12:12.243Z,19.00
2018-12-14T20:14:44.300Z,18.20
2018-12-14T20:17:15.863Z,18.80
2018-12-14T20:19:47.693Z,18.73
2018-12-14T20:22:20.388Z,18.27
2018-12-14T20:24:51.301Z,21.02
2018-12-14T20:27:23.853Z,19.30
2018-12-14T20:29:54.751Z,18.87
2018-12-14T20:32:25.925Z,18.27
2018-12-14T20:34:57.299Z,18.50
2018-12-14T20:37:28.298Z,18.67
2018-12-14T20:39:59.418Z,16.93
2018-12-14T20:42:31.386Z,16.62
2018-12-14T20:45:04.270Z,18.12
2018-12-14T20:47:35.518Z,19.42
2018-12-14T20:50:08.206Z,15.60
2018-12-14T20:52:40.469Z,18.98
2018-12-14T20:55:11.796Z,18.55
2018-12-14T20:57:42.705Z,17.80
2018-12-14T21:00:14.298Z,18.60
2018-12-14T21:02:46.043Z,17.40
2018-12-14T21:05:17.732Z,18.98
2018-12-14T21:07:49.740Z,16.73
2018-12-14T21:10:20.842Z,15.98
2018-12-14T21:12:51.858Z,17.77
2018-12-14T21:15:23.531Z,17.10
2018-12-14T21:17:54.859Z,15.80
2018-12-14T21:20:25.806Z,16.48
2018-12-14T21:22:57.037Z,17.05
2018-12-14T21:25:27.965Z,16.80
2018-12-14T21:28:00.430Z,17.35
2018-12-14T21:30:31.494Z,16.00
2018-12-14T21:33:02.430Z,18.98
2018-12-14T21:35:33.366Z,17.05
2018-12-14T21:38:04.427Z,17.73
2018-12-14T21:40:35.462Z,17.75
2018-12-14T21:43:06.562Z,18.45
2018-12-14T21:45:38.498Z,18.85
2018-12-14T21:48:10.463Z,20.37
2018-12-14T21:50:41.434Z,17.80
2018-12-14T21:53:14.565Z,19.85
2018-12-14T21:55:45.506Z,19.67
2018-12-14T21:58:16.858Z,31.82
2018-12-14T22:00:47.761Z,24.45
2018-12-14T22:03:18.690Z,20.27
2018-12-14T22:05:49.639Z,20.70
2018-12-14T22:08:20.580Z,19.10
2018-12-14T22:10:52.850Z,17.17
2018-12-14T22:13:25.417Z,18.40
2018-12-14T22:15:58.140Z,20.27
2018-12-14T22:18:29.058Z,20.92
2018-12-14T22:21:00.792Z,23.75
2018-12-14T22:23:32.247Z,19.00
2018-12-14T22:26:03.274Z,21.10
2018-12-14T22:28:34.575Z,21.12
2018-12-14T22:31:05.558Z,24.80
2018-12-14T22:33:36.517Z,26.48
2018-12-14T22:36:07.959Z,25.48
2018-12-14T22:38:38.864Z,23.60
2018-12-14T22:41:09.854Z,24.27
2018-12-14T22:43:41.262Z,20.65
2018-12-14T22:46:12.258Z,20.43
2018-12-14T22:48:43.662Z,20.92
2018-12-14T22:51:14.625Z,20.88
2018-12-14T22:53:45.530Z,22.35
2018-12-14T22:56:16.490Z,17.67
2018-12-14T22:58:47.413Z,18.70
2018-12-14T23:01:19.719Z,19.27
2018-12-14T23:03:50.635Z,21.15
2018-12-14T23:06:22.202Z,21.42
2018-12-14T23:08:53.102Z,17.92
2018-12-14T23:11:25.873Z,21.05
2018-12-14T23:13:56.754Z,19.65
2018-12-14T23:16:27.699Z,18.57
2018-12-14T23:18:58.685Z,27.73
2018-12-14T23:21:29.638Z,23.45
2018-12-14T23:24:00.561Z,25.80
2018-12-14T23:26:32.869Z,21.60
2018-12-14T23:29:03.788Z,20.02
2018-12-14T23:31:35.677Z,20.43
2018-12-14T23:34:07.132Z,22.05
2018-12-14T23:36:38.009Z,24.32
2018-12-14T23:39:08.957Z,22.85
2018-12-14T23:41:54.054Z,22.45
2018-12-14T23:44:24.982Z,21.30
2018-12-14T23:46:58.935Z,22.27
2018-12-14T23:49:29.724Z,22.22
2018-12-14T23:52:00.773Z,22.60
2018-12-14T23:54:31.699Z,23.40
2018-12-14T23:57:02.879Z,20.97
2018-12-14T23:59:33.792Z,21.30
